createdAt,value
2018-06-08T00:00:38.265Z,101507.28
2018-06-08T00:03:11.976Z,101513.48
2018-06-08T00:05:47.866Z,101511.30
2018-06-08T00:08:23.888Z,101521.45
2018-06-08T00:10:59.762Z,101516.94
2018-06-08T00:13:37.359Z,101513.09
2018-06-08T00:16:14.922Z,101515.91
2018-06-08T00:18:50.329Z,101515.91
2018-06-08T00:21:27.092Z,101512.55
2018-06-08T00:24:03.082Z,101506.88
2018-06-08T00:26:39.917Z,101518.56
2018-06-08T00:29:15.818Z,101509.86
2018-06-08T00:31:51.536Z,101501.53
2018-06-08T00:34:27.270Z,101504.87
2018-06-08T00:37:03.152Z,101504.52
2018-06-08T00:39:39.483Z,101512.84
2018-06-08T00:42:16.101Z,101515.50
2018-06-08T00:44:52.681Z,101514.16
2018-06-08T00:47:29.447Z,101511.35
2018-06-08T00:50:07.225Z,101505.46
2018-06-08T00:52:45.278Z,101506.14
2018-06-08T00:55:22.063Z,101504.14
2018-06-08T00:57:59.074Z,101509.36
2018-06-08T01:00:35.212Z,101500.96
2018-06-08T01:03:11.784Z,101509.49
2018-06-08T01:05:47.451Z,101499.27
2018-06-08T01:08:23.276Z,101509.15
2018-06-08T01:10:59.110Z,101517.30
2018-06-08T01:13:34.937Z,101515.97
2018-06-08T01:16:10.880Z,101512.97
2018-06-08T01:18:46.546Z,101514.14
2018-06-08T01:21:22.488Z,101514.97
2018-06-08T01:24:00.830Z,101513.77
2018-06-08T01:26:38.092Z,101508.42
2018-06-08T01:29:15.076Z,101514.61
2018-06-08T01:31:51.111Z,101509.76
2018-06-08T01:34:27.085Z,101511.56
2018-06-08T01:37:03.084Z,101514.41
2018-06-08T01:39:38.679Z,101514.41
2018-06-08T01:42:14.427Z,101510.39
2018-06-08T01:44:50.082Z,101510.73
2018-06-08T01:47:26.104Z,101515.74
2018-06-08T01:50:01.575Z,101510.38
2018-06-08T01:52:37.446Z,101516.70
2018-06-08T01:58:05.334Z,101506.79
2018-06-08T02:00:41.303Z,101508.42
2018-06-08T02:03:17.292Z,101507.20
2018-06-08T02:05:54.417Z,101510.00
2018-06-08T02:08:32.074Z,101516.61
2018-06-08T02:11:10.583Z,101517.06
2018-06-08T02:13:50.761Z,101514.88
2018-06-08T02:16:26.538Z,101518.87
2018-06-08T02:22:04.432Z,101515.53
2018-06-08T02:24:41.764Z,101522.70
2018-06-08T02:27:17.720Z,101525.70
2018-06-08T02:29:51.499Z,101535.77
2018-06-08T02:32:27.356Z,101535.90
2018-06-08T02:35:03.338Z,101536.45
2018-06-08T02:37:39.251Z,101544.27
2018-06-08T02:40:15.415Z,101546.41
2018-06-08T02:42:51.571Z,101551.52
2018-06-08T02:46:23.379Z,101545.34
2018-06-08T02:48:59.421Z,101550.48
2018-06-08T02:51:36.421Z,101553.55
2018-06-08T02:54:12.618Z,101548.70
2018-06-08T02:56:48.873Z,101552.70
2018-06-08T02:59:24.426Z,101552.33
2018-06-08T03:01:59.041Z,101552.53
2018-06-08T03:04:34.541Z,101558.30
2018-06-08T03:07:10.081Z,101552.28
2018-06-08T03:09:45.795Z,101554.00
2018-06-08T03:12:21.632Z,101555.98
2018-06-08T03:14:57.260Z,101560.75
2018-06-08T03:17:33.759Z,101563.27
2018-06-08T03:20:13.229Z,101564.27
2018-06-08T03:22:50.310Z,101558.93
2018-06-08T03:25:24.007Z,101563.92
2018-06-08T03:27:59.858Z,101560.74
2018-06-08T03:30:37.083Z,101571.02
2018-06-08T03:33:12.899Z,101565.97
2018-06-08T03:35:48.331Z,101569.55
2018-06-08T03:38:24.087Z,101564.48
2018-06-08T03:40:59.842Z,101563.14
2018-06-08T03:43:35.452Z,101565.39
2018-06-08T03:46:09.036Z,101566.67
2018-06-08T03:48:44.825Z,101567.43
2018-06-08T03:51:20.843Z,101571.25
2018-06-08T03:53:56.794Z,101576.22
2018-06-08T03:56:33.321Z,101570.77
2018-06-08T03:59:09.260Z,101572.86
2018-06-08T04:01:46.497Z,101574.34
2018-06-08T04:04:22.082Z,101579.09
2018-06-08T04:07:26.804Z,101578.45
2018-06-08T04:10:02.873Z,101570.19
2018-06-08T04:12:39.871Z,101584.72
2018-06-08T04:15:15.783Z,101580.94
2018-06-08T04:17:52.089Z,101591.62
2018-06-08T04:20:25.990Z,101583.63
2018-06-08T04:23:01.886Z,101588.41
2018-06-08T04:25:37.854Z,101594.36
2018-06-08T04:28:14.470Z,101594.23
2018-06-08T04:30:50.883Z,101588.25
2018-06-08T04:33:27.175Z,101597.29
2018-06-08T04:36:03.195Z,101596.17
2018-06-08T04:39:23.442Z,101599.32
2018-06-08T04:41:59.335Z,101598.00
2018-06-08T04:44:33.001Z,101600.30
2018-06-08T04:47:08.656Z,101596.23
2018-06-08T04:49:44.289Z,101607.33
2018-06-08T04:54:31.072Z,101611.88
2018-06-08T04:57:06.970Z,101614.42
2018-06-08T04:59:42.829Z,101617.97
2018-06-08T05:02:18.573Z,101624.91
2018-06-08T05:04:54.464Z,101629.23
2018-06-08T05:07:30.093Z,101630.57
2018-06-08T05:10:06.098Z,101627.53
2018-06-08T05:12:42.258Z,101636.70
2018-06-08T05:15:18.084Z,101641.39
2018-06-08T05:17:54.070Z,101635.84
2018-06-08T05:20:30.086Z,101634.18
2018-06-08T05:23:06.277Z,101631.98
2018-06-08T05:25:42.093Z,101629.89
2018-06-08T05:28:18.534Z,101635.55
2018-06-08T05:30:55.282Z,101639.90
2018-06-08T05:33:31.205Z,101638.57
2018-06-08T05:36:07.102Z,101647.03
2018-06-08T05:38:43.870Z,101647.73
2018-06-08T05:41:19.781Z,101645.22
2018-06-08T05:43:55.486Z,101642.48
2018-06-08T05:46:32.085Z,101644.55
2018-06-08T05:49:08.096Z,101638.12
2018-06-08T05:51:44.096Z,101641.48
2018-06-08T05:54:20.327Z,101638.48
2018-06-08T05:56:57.886Z,101643.95
2018-06-08T05:59:34.326Z,101636.70
2018-06-08T06:02:10.103Z,101637.25
2018-06-08T06:04:46.106Z,101639.53
2018-06-08T06:07:21.812Z,101641.41
2018-06-08T06:09:57.580Z,101636.14
2018-06-08T06:12:33.211Z,101641.31
2018-06-08T06:15:09.211Z,101645.22
2018-06-08T06:17:44.890Z,101639.91
2018-06-08T06:20:20.529Z,101636.31
2018-06-08T06:22:56.274Z,101642.36
2018-06-08T06:25:31.942Z,101637.64
2018-06-08T06:28:07.803Z,101639.70
2018-06-08T06:30:43.543Z,101631.24
2018-06-08T06:33:19.469Z,101629.44
2018-06-08T06:35:55.223Z,101633.19
2018-06-08T06:38:31.098Z,101629.81
2018-06-08T06:41:06.566Z,101626.17
2018-06-08T06:43:42.292Z,101633.44
2018-06-08T06:46:18.973Z,101633.20
2018-06-08T06:48:54.719Z,101639.48
2018-06-08T06:51:30.753Z,101638.53
2018-06-08T06:54:06.520Z,101634.21
2018-06-08T06:56:43.126Z,101630.75
2018-06-08T06:59:19.144Z,101636.92
2018-06-08T07:01:55.257Z,101629.48
2018-06-08T07:04:31.474Z,101625.12
2018-06-08T07:08:10.668Z,101623.08
2018-06-08T07:10:46.400Z,101625.98
2018-06-08T07:13:23.125Z,101619.95
2018-06-08T07:15:59.130Z,101620.05
2018-06-08T07:18:35.117Z,101626.11
2018-06-08T07:21:11.426Z,101618.91
2018-06-08T07:23:48.745Z,101612.41
2018-06-08T07:26:26.541Z,101619.91
2018-06-08T07:29:02.696Z,101609.40
2018-06-08T07:31:38.407Z,101603.66
2018-06-08T07:34:14.574Z,101602.70
2018-06-08T07:36:50.520Z,101604.97
2018-06-08T07:39:26.585Z,101602.08
2018-06-08T07:42:02.823Z,101605.21
2018-06-08T07:44:38.839Z,101603.27
2018-06-08T07:47:15.251Z,101607.59
2018-06-08T07:49:51.338Z,101601.43
2018-06-08T07:54:36.550Z,101592.18
2018-06-08T07:57:13.714Z,101588.67
2018-06-08T07:59:50.855Z,101578.05
2018-06-08T08:02:26.413Z,101582.55
2018-06-08T08:05:00.215Z,101575.11
2018-06-08T08:07:36.214Z,101577.42
2018-06-08T08:10:12.273Z,101574.97
2018-06-08T08:12:46.232Z,101576.57
2018-06-08T08:15:23.206Z,101571.12
2018-06-08T08:17:59.314Z,101570.27
2018-06-08T08:20:35.269Z,101570.66
2018-06-08T08:23:11.279Z,101566.57
2018-06-08T08:25:54.038Z,101563.92
2018-06-08T08:28:30.218Z,101558.23
2018-06-08T08:31:06.229Z,101558.51
2018-06-08T08:33:42.240Z,101560.78
2018-06-08T08:36:18.292Z,101558.23
2018-06-08T08:38:54.214Z,101557.38
2018-06-08T08:41:30.212Z,101558.23
2018-06-08T08:44:06.268Z,101561.27
2018-06-08T08:46:42.279Z,101561.03
2018-06-08T08:49:18.217Z,101559.50
2018-06-08T08:51:54.302Z,101563.34
2018-06-08T08:54:31.978Z,101568.17
2018-06-08T08:57:08.011Z,101563.00
2018-06-08T08:59:44.272Z,101564.05
2018-06-08T09:02:20.305Z,101561.88
2018-06-08T09:04:56.286Z,101563.30
2018-06-08T09:07:34.224Z,101559.83
2018-06-08T09:10:10.334Z,101562.02
2018-06-08T09:12:46.440Z,101558.64
2018-06-08T09:15:23.630Z,101556.61
2018-06-08T09:17:59.695Z,101557.22
2018-06-08T09:20:35.555Z,101557.31
2018-06-08T09:23:09.459Z,101551.77
2018-06-08T09:25:45.422Z,101555.99
2018-06-08T09:28:21.298Z,101553.44
2018-06-08T09:30:57.209Z,101556.09
2018-06-08T09:33:33.279Z,101561.67
2018-06-08T09:36:09.986Z,101559.97
2018-06-08T09:38:45.619Z,101558.17
2018-06-08T09:41:21.271Z,101551.16
2018-06-08T09:43:57.089Z,101557.55
2018-06-08T09:46:32.755Z,101557.31
2018-06-08T09:49:08.407Z,101551.09
2018-06-08T09:51:42.217Z,101549.55
2018-06-08T09:54:18.068Z,101554.59
2018-06-08T09:56:54.207Z,101552.41
2018-06-08T09:59:29.804Z,101555.30
2018-06-08T10:02:05.433Z,101548.44
2018-06-08T10:04:39.024Z,101557.85
2018-06-08T10:07:14.783Z,101554.35
2018-06-08T10:09:50.296Z,101554.59
2018-06-08T10:12:26.093Z,101555.92
2018-06-08T10:15:01.666Z,101555.55
2018-06-08T10:17:37.275Z,101551.94
2018-06-08T10:20:12.857Z,101552.78
2018-06-08T10:22:48.453Z,101550.27
2018-06-08T10:25:24.103Z,101556.52
2018-06-08T10:27:59.797Z,101548.70
2018-06-08T10:30:35.276Z,101555.09
2018-06-08T10:33:11.078Z,101556.28
2018-06-08T10:35:46.762Z,101556.42
2018-06-08T10:38:22.416Z,101556.17
2018-06-08T10:40:56.001Z,101558.11
2018-06-08T10:43:31.670Z,101563.76
2018-06-08T10:46:07.325Z,101561.69
2018-06-08T10:48:41.019Z,101574.83
2018-06-08T10:51:43.213Z,101563.51
2018-06-08T10:54:19.988Z,101567.73
2018-06-08T10:56:56.279Z,101566.30
2018-06-08T10:59:32.090Z,101571.94
2018-06-08T11:02:07.940Z,101571.35
2018-06-08T11:04:44.097Z,101567.48
2018-06-08T11:07:20.089Z,101572.91
2018-06-08T11:09:55.851Z,101568.10
2018-06-08T11:12:31.545Z,101564.73
2018-06-08T11:15:05.213Z,101564.00
2018-06-08T11:17:41.090Z,101565.70
2018-06-08T11:20:17.073Z,101567.77
2018-06-08T11:22:53.069Z,101569.91
2018-06-08T11:25:29.107Z,101565.20
2018-06-08T11:28:05.121Z,101565.56
2018-06-08T11:30:40.981Z,101566.80
2018-06-08T11:33:17.093Z,101566.30
2018-06-08T11:35:52.950Z,101563.78
2018-06-08T11:38:28.850Z,101569.18
2018-06-08T11:41:04.554Z,101563.88
2018-06-08T11:43:41.277Z,101563.27
2018-06-08T11:46:17.109Z,101563.30
2018-06-08T11:48:53.859Z,101561.12
2018-06-08T11:51:30.211Z,101563.54
2018-06-08T11:54:06.290Z,101564.61
2018-06-08T11:56:42.340Z,101570.16
2018-06-08T11:59:18.430Z,101567.98
2018-06-08T12:01:54.898Z,101569.31
2018-06-08T12:04:31.087Z,101562.57
2018-06-08T12:07:07.312Z,101563.28
2018-06-08T12:09:43.443Z,101575.80
2018-06-08T12:12:19.433Z,101573.63
2018-06-08T12:14:55.826Z,101576.66
2018-06-08T12:17:32.094Z,101586.52
2018-06-08T12:20:08.278Z,101577.73
2018-06-08T12:22:44.428Z,101584.95
2018-06-08T12:25:20.918Z,101580.79
2018-06-08T12:27:57.209Z,101581.99
2018-06-08T12:30:33.303Z,101576.70
2018-06-08T12:33:10.274Z,101581.52
2018-06-08T12:35:46.469Z,101577.89
2018-06-08T12:38:22.530Z,101573.67
2018-06-08T12:40:58.420Z,101570.77
2018-06-08T12:48:41.270Z,101583.06
2018-06-08T12:51:17.082Z,101583.51
2018-06-08T12:53:55.092Z,101579.97
2018-06-08T12:56:32.273Z,101582.74
2018-06-08T12:59:09.289Z,101588.76
2018-06-08T13:01:46.742Z,101583.43
2018-06-08T13:04:23.555Z,101583.94
2018-06-08T13:07:01.289Z,101589.23
2018-06-08T13:09:38.328Z,101590.17
2018-06-08T13:12:15.272Z,101589.91
2018-06-08T13:14:52.811Z,101597.11
2018-06-08T13:17:30.070Z,101598.44
2018-06-08T13:20:07.335Z,101595.92
2018-06-08T13:22:43.873Z,101606.12
2018-06-08T13:25:22.116Z,101613.20
2018-06-08T13:27:59.288Z,101611.62
2018-06-08T13:30:37.211Z,101607.79
2018-06-08T13:33:15.270Z,101613.13
2018-06-08T13:35:52.429Z,101609.50
2018-06-08T13:38:29.696Z,101612.28
2018-06-08T13:41:07.077Z,101610.95
2018-06-08T13:43:44.320Z,101609.97
2018-06-08T13:46:34.611Z,101618.16
2018-06-08T13:49:13.266Z,101615.86
2018-06-08T13:51:50.674Z,101621.75
2018-06-08T13:54:28.122Z,101609.70
2018-06-08T13:57:06.575Z,101613.42
2018-06-08T13:59:43.817Z,101613.67
2018-06-08T14:02:21.511Z,101617.03
2018-06-08T14:04:58.806Z,101615.24
2018-06-08T14:07:36.893Z,101610.38
2018-06-08T14:10:15.262Z,101616.85
2018-06-08T14:12:53.067Z,101610.28
2018-06-08T14:15:30.467Z,101614.88
2018-06-08T14:18:07.569Z,101621.87
2018-06-08T14:20:44.089Z,101621.73
2018-06-08T14:23:21.101Z,101633.50
2018-06-08T14:25:58.664Z,101636.95
2018-06-08T14:28:36.673Z,101636.02
2018-06-08T14:31:15.451Z,101626.16
2018-06-08T14:33:52.398Z,101629.61
2018-06-08T14:36:27.467Z,101631.20
2018-06-08T14:39:03.974Z,101627.42
2018-06-08T14:41:41.414Z,101623.20
2018-06-08T14:44:18.512Z,101626.35
2018-06-08T14:46:55.284Z,101624.64
2018-06-08T14:49:33.062Z,101634.84
2018-06-08T14:52:09.867Z,101634.16
2018-06-08T14:54:47.093Z,101636.81
2018-06-08T14:57:24.482Z,101630.67
2018-06-08T15:00:02.265Z,101632.23
2018-06-08T15:02:39.209Z,101634.63
2018-06-08T15:05:18.259Z,101638.73
2018-06-08T15:07:55.091Z,101639.66
2018-06-08T15:10:33.266Z,101630.40
2018-06-08T15:13:10.266Z,101635.95
2018-06-08T15:15:47.281Z,101635.70
2018-06-08T15:18:22.011Z,101635.37
2018-06-08T15:20:59.807Z,101639.08
2018-06-08T15:23:38.135Z,101639.91
2018-06-08T15:26:14.859Z,101639.45
2018-06-08T15:28:52.268Z,101636.55
2018-06-08T15:31:29.661Z,101634.64
2018-06-08T15:34:07.237Z,101637.66
2018-06-08T15:36:45.282Z,101638.14
2018-06-08T15:39:23.303Z,101634.38
2018-06-08T15:42:00.488Z,101631.52
2018-06-08T15:44:39.372Z,101631.91
2018-06-08T15:47:16.753Z,101631.31
2018-06-08T15:49:54.104Z,101622.30
2018-06-08T15:52:31.690Z,101627.73
2018-06-08T15:55:09.334Z,101633.37
2018-06-08T15:57:46.560Z,101630.13
2018-06-08T16:00:24.919Z,101626.06
2018-06-08T16:03:03.426Z,101621.97
2018-06-08T16:05:40.578Z,101626.20
2018-06-08T16:08:18.108Z,101619.71
2018-06-08T16:10:54.080Z,101618.98
2018-06-08T16:13:30.256Z,101614.45
2018-06-08T16:16:06.443Z,101620.00
2018-06-08T16:18:42.437Z,101617.70
2018-06-08T16:21:18.668Z,101618.21
2018-06-08T16:23:54.452Z,101615.09
2018-06-08T16:26:30.402Z,101611.84
2018-06-08T16:29:06.271Z,101614.97
2018-06-08T16:31:42.114Z,101610.65
2018-06-08T16:34:18.079Z,101610.86
2018-06-08T16:36:54.213Z,101606.33
2018-06-08T16:39:30.843Z,101606.92
2018-06-08T16:42:06.807Z,101605.63
2018-06-08T16:44:43.330Z,101597.12
2018-06-08T16:47:19.212Z,101597.84
2018-06-08T16:49:55.868Z,101588.44
2018-06-08T16:52:31.760Z,101585.81
2018-06-08T16:55:08.278Z,101585.70
2018-06-08T16:57:44.280Z,101575.47
2018-06-08T17:00:21.213Z,101578.71
2018-06-08T17:02:57.428Z,101583.78
2018-06-08T17:05:34.094Z,101579.55
2018-06-08T17:08:10.301Z,101584.48
2018-06-08T17:10:46.684Z,101580.53
2018-06-08T17:13:22.861Z,101579.79
2018-06-08T17:15:59.297Z,101583.78
2018-06-08T17:18:35.690Z,101577.98
2018-06-08T17:21:18.866Z,101574.97
2018-06-08T17:23:55.325Z,101577.25
2018-06-08T17:26:29.400Z,101582.70
2018-06-08T17:29:05.424Z,101569.65
2018-06-08T17:31:42.432Z,101570.13
2018-06-08T17:34:18.444Z,101569.63
2018-06-08T17:36:54.688Z,101563.00
2018-06-08T17:39:30.882Z,101567.80
2018-06-08T17:42:07.307Z,101560.31
2018-06-08T17:44:43.882Z,101569.80
2018-06-08T17:47:20.531Z,101569.42
2018-06-08T17:49:56.559Z,101569.52
2018-06-08T17:52:33.213Z,101565.16
2018-06-08T17:55:09.424Z,101564.06
2018-06-08T17:57:45.437Z,101560.04
2018-06-08T18:00:23.551Z,101558.73
2018-06-08T18:02:59.854Z,101552.05
2018-06-08T18:05:36.291Z,101552.14
2018-06-08T18:08:12.484Z,101551.62
2018-06-08T18:10:48.536Z,101552.22
2018-06-08T18:13:27.421Z,101552.17
2018-06-08T18:16:03.782Z,101550.59
2018-06-08T18:18:41.706Z,101550.55
2018-06-08T18:21:18.339Z,101548.80
2018-06-08T18:23:54.893Z,101542.02
2018-06-08T18:26:31.444Z,101541.17
2018-06-08T18:29:07.875Z,101537.41
2018-06-08T18:31:44.096Z,101543.18
2018-06-08T18:34:20.418Z,101541.94
2018-06-08T18:36:56.450Z,101538.41
2018-06-08T18:39:32.851Z,101547.94
2018-06-08T18:42:09.393Z,101547.64
2018-06-08T18:44:43.471Z,101547.17
2018-06-08T18:47:19.876Z,101545.16
2018-06-08T18:49:57.529Z,101540.77
2018-06-08T18:52:34.339Z,101541.06
2018-06-08T18:55:10.752Z,101546.20
2018-06-08T18:57:47.088Z,101544.47
2018-06-08T19:00:25.427Z,101542.81
2018-06-08T19:03:01.664Z,101542.89
2018-06-08T19:05:39.755Z,101546.91
2018-06-08T19:08:16.799Z,101534.38
2018-06-08T19:10:55.526Z,101532.74
2018-06-08T19:13:33.297Z,101534.14
2018-06-08T19:16:09.423Z,101541.59
2018-06-08T19:18:43.213Z,101542.36
2018-06-08T19:21:21.939Z,101543.61
2018-06-08T19:23:58.215Z,101538.56
2018-06-08T19:26:35.333Z,101540.76
2018-06-08T19:29:11.403Z,101536.89
2018-06-08T19:31:48.099Z,101538.07
2018-06-08T19:34:24.578Z,101533.33
2018-06-08T19:37:01.495Z,101528.42
2018-06-08T19:39:37.818Z,101530.17
2018-06-08T19:42:14.340Z,101529.38
2018-06-08T19:44:50.884Z,101526.50
2018-06-08T19:47:27.274Z,101527.88
2018-06-08T19:50:03.682Z,101528.02
2018-06-08T19:52:40.334Z,101524.56
2018-06-08T19:55:17.408Z,101536.23
2018-06-08T19:57:54.525Z,101535.52
2018-06-08T20:00:31.937Z,101533.27
2018-06-08T20:03:08.934Z,101539.82
2018-06-08T20:05:43.322Z,101535.26
2018-06-08T20:08:19.831Z,101535.51
2018-06-08T20:10:56.421Z,101538.09
2018-06-08T20:15:42.092Z,101525.09
2018-06-08T20:18:18.273Z,101535.67
2018-06-08T20:20:54.547Z,101528.89
2018-06-08T20:23:30.848Z,101534.66
2018-06-08T20:26:07.089Z,101534.41
2018-06-08T20:28:43.556Z,101535.98
2018-06-08T20:31:19.208Z,101537.78
2018-06-08T20:33:55.117Z,101540.84
2018-06-08T20:36:31.073Z,101539.55
2018-06-08T20:39:07.677Z,101549.64
2018-06-08T20:41:43.426Z,101550.03
2018-06-08T20:44:19.117Z,101554.73
2018-06-08T20:46:54.885Z,101559.25
2018-06-08T20:49:32.269Z,101564.30
2018-06-08T20:52:09.882Z,101562.70
2018-06-08T20:54:47.831Z,101560.45
2018-06-08T20:57:34.415Z,101558.78
2018-06-08T21:00:10.740Z,101548.70
2018-06-08T21:02:46.790Z,101550.09
2018-06-08T21:05:22.761Z,101559.69
2018-06-08T21:07:58.693Z,101563.61
2018-06-08T21:10:34.819Z,101551.78
2018-06-08T21:13:11.411Z,101557.03
2018-06-08T21:15:48.095Z,101550.22
2018-06-08T21:18:24.113Z,101548.98
2018-06-08T21:21:00.205Z,101545.16
2018-06-08T21:23:35.891Z,101542.02
2018-06-08T21:26:11.438Z,101542.71
2018-06-08T21:28:47.874Z,101532.88
2018-06-08T21:31:24.865Z,101539.27
2018-06-08T21:34:00.751Z,101531.42
2018-06-08T21:36:36.661Z,101532.09
2018-06-08T21:39:14.559Z,101537.67
2018-06-08T21:41:50.269Z,101531.34
2018-06-08T21:44:26.087Z,101532.01
2018-06-08T21:47:02.188Z,101532.72
2018-06-08T21:49:38.287Z,101520.66
2018-06-08T21:52:15.210Z,101531.73
2018-06-08T21:54:52.050Z,101530.39
2018-06-08T21:57:29.421Z,101526.05
2018-06-08T22:00:08.855Z,101531.09
2018-06-08T22:02:45.847Z,101523.36
2018-06-08T22:05:21.841Z,101524.55
2018-06-08T22:07:57.481Z,101529.73
2018-06-08T22:10:33.283Z,101523.03
2018-06-08T22:13:09.260Z,101520.18
2018-06-08T22:15:45.412Z,101521.89
2018-06-08T22:18:21.073Z,101525.23
2018-06-08T22:20:58.258Z,101521.39
2018-06-08T22:23:34.087Z,101517.36
2018-06-08T22:26:10.267Z,101515.35
2018-06-08T22:28:44.419Z,101515.02
2018-06-08T22:31:20.423Z,101510.16
2018-06-08T22:33:56.317Z,101513.02
2018-06-08T22:36:33.111Z,101514.34
2018-06-08T22:39:10.266Z,101516.84
2018-06-08T22:41:45.906Z,101521.53
2018-06-08T22:44:21.748Z,101519.52
2018-06-08T22:46:58.862Z,101522.71
2018-06-08T22:50:45.865Z,101523.88
2018-06-08T22:53:22.207Z,101521.85
2018-06-08T22:55:58.097Z,101523.05
2018-06-08T22:58:34.260Z,101519.02
2018-06-08T23:01:11.407Z,101512.61
2018-06-08T23:03:47.431Z,101514.12
2018-06-08T23:06:23.309Z,101520.82
2018-06-08T23:08:59.454Z,101518.52
2018-06-08T23:11:35.265Z,101520.17
2018-06-08T23:14:11.571Z,101521.34
2018-06-08T23:16:47.206Z,101520.84
2018-06-08T23:19:23.096Z,101523.03
2018-06-08T23:21:59.118Z,101520.52
2018-06-08T23:24:36.826Z,101519.69
2018-06-08T23:27:27.004Z,101525.37
2018-06-08T23:30:02.903Z,101529.41
2018-06-08T23:32:39.136Z,101536.11
2018-06-08T23:35:16.205Z,101531.23
2018-06-08T23:37:52.115Z,101528.23
2018-06-08T23:40:28.270Z,101534.08
2018-06-08T23:43:04.443Z,101528.22
2018-06-08T23:45:40.283Z,101534.08
2018-06-08T23:48:16.318Z,101535.27
2018-06-08T23:50:52.210Z,101523.03
2018-06-08T23:53:28.301Z,101524.04
2018-06-08T23:56:04.423Z,101531.60
2018-06-08T23:58:40.260Z,101519.02
